Bloomington, MD (21523)

3:17 PM EDT on September 03, 2015 (GMT -0400)
Stoney Run Station | | Change Station
CLOSE
Current Station
Personal Weather Station
Location: Keyser, WV
Elevation: 1275 ft
Nearby Weather Stations

Elev 1275 ft 39.43 °N, 79.01 °W | Updated 4 seconds ago

Partly Cloudy
Partly Cloudy
87.9 °F
Feels Like 97 °F
N
1.0
Wind Variable Wind from WSW
Gusts 6.0 mph

Today
High -- | Low -- °F
--% Chance of Precip.
Yesterday
High -- | Low -- °F
Precip. -- in
6:46 AM 7:44 PM
Waning Gibbous, 67% visible
Pressure 30.07 in
Visibility 0.8 miles
Clouds Mostly Cloudy 1100 ft
Overcast 2100 ft
Heat Index 97 °F
Dew Point 74 °F
Humidity 64%
Rainfall 0.00 in
Snow Depth Not available.
UV 2 out of 12
Pollen 8.80 out of 12
Air Quality Not available.
Flu Activity Not available.
METAR K2G4 031905Z AUTO 30003KT 3/4SM HZ BKN011 OVC021 20/16 A3007 RMK AO1
Pressure 30.07 in
Visibility 0.8 miles
Clouds Mostly Cloudy 1100 ft
Overcast 2100 ft
Heat Index 97 °F
Dew Point 74 °F
Humidity 64%
Rainfall 0.00 in
Snow Depth Not available.
UV 2 out of 12
Pollen 8.80 out of 12
Air Quality Not available.
Flu Activity Not available.
METAR K2G4 031905Z AUTO 30003KT 3/4SM HZ BKN011 OVC021 20/16 A3007 RMK AO1

10-Day Weather Forecast

×

Almanac

Astronomy

Sep. 03, 2015 Rise Set
Actual Time
Civil Twilight
Nautical Twilight
Astronomical Twilight
Moon
Length of Visible Light
Length of Day
Tomorrow will be .
, % of the Moon is Illuminated

Today's Extremes

State Highs State Lows

Community

WunderPhotos

Upload Photos

1,852,014 photos uploaded!

WunderBlogs® & News

Nearby

Air Quality

  Air Quality AQ Index Pollutant
Not available.

Snow Depth

Station Depth Elevation

Earthquake Activity

City Distance Mag. Time & Date
Minimum magnitude displayed is 2.5.

Coastal Water Temperatures

Place Temperature

Stations

Nearby Weather Stations

Station Location Temp. Windchill Dew Point Humidity Wind Precip. Elev Updated Type